createdAt,value
2023-05-04T00:00:10.427Z,57.97
2023-05-04T00:05:33.013Z,60.05
2023-05-04T00:10:35.643Z,61.50
2023-05-04T00:15:38.182Z,68.52
2023-05-04T00:20:41.013Z,67.32
2023-05-04T00:25:43.575Z,62.42
2023-05-04T00:30:46.500Z,58.24
2023-05-04T00:35:49.079Z,58.54
2023-05-04T00:40:51.790Z,62.96
2023-05-04T00:45:54.393Z,66.94
2023-05-04T00:50:57.138Z,62.44
2023-05-04T00:55:59.733Z,59.21
2023-05-04T01:01:03.912Z,56.47
2023-05-04T01:06:30.346Z,59.51
2023-05-04T01:12:01.481Z,61.44
2023-05-04T01:17:06.007Z,69.22
2023-05-04T01:22:08.726Z,66.60
2023-05-04T01:27:19.287Z,62.66
2023-05-04T01:32:22.933Z,60.63
2023-05-04T01:37:26.014Z,57.80
2023-05-04T01:42:28.527Z,60.35
2023-05-04T01:47:31.678Z,66.51
2023-05-04T01:52:34.215Z,64.74
2023-05-04T01:57:36.775Z,61.57
2023-05-04T02:02:39.384Z,58.30
2023-05-04T02:07:41.978Z,61.05
2023-05-04T02:12:44.584Z,66.23
2023-05-04T02:17:47.113Z,62.94
2023-05-04T02:22:49.595Z,60.71
2023-05-04T02:27:52.105Z,57.65
2023-05-04T02:32:54.665Z,61.42
2023-05-04T02:37:57.197Z,65.20
2023-05-04T02:42:59.765Z,61.57
2023-05-04T02:48:02.385Z,59.78
2023-05-04T02:53:04.986Z,55.96
2023-05-04T02:58:07.583Z,60.34
2023-05-04T03:03:10.283Z,65.03
2023-05-04T03:08:13.043Z,65.88
2023-05-04T03:13:16.620Z,62.57
2023-05-04T03:18:19.232Z,58.16
2023-05-04T03:23:21.730Z,58.00
2023-05-04T03:28:24.304Z,60.53
2023-05-04T03:33:26.796Z,61.32
2023-05-04T03:38:29.328Z,67.45
2023-05-04T03:43:31.871Z,65.17
2023-05-04T03:48:34.464Z,60.44
2023-05-04T03:53:37.081Z,55.92
2023-05-04T03:58:39.637Z,58.28
2023-05-04T04:03:42.263Z,59.84
2023-05-04T04:08:44.877Z,61.17
2023-05-04T04:13:47.402Z,67.24
2023-05-04T04:18:49.981Z,65.29
2023-05-04T04:23:52.593Z,60.79
2023-05-04T04:28:55.215Z,56.13
2023-05-04T04:33:57.818Z,56.94
2023-05-04T04:39:00.843Z,57.87
2023-05-04T04:44:04.051Z,58.30
2023-05-04T04:49:07.263Z,59.10
2023-05-04T04:54:09.954Z,60.24
2023-05-04T04:59:13.947Z,61.08
2023-05-04T05:04:18.957Z,66.74
2023-05-04T05:09:21.469Z,62.65
2023-05-04T05:14:24.044Z,55.43
2023-05-04T05:19:26.611Z,54.80
2023-05-04T05:24:29.149Z,56.48
2023-05-04T05:29:32.156Z,56.64
2023-05-04T05:34:34.963Z,55.70
2023-05-04T05:39:37.478Z,57.42
2023-05-04T05:44:40.134Z,55.80
2023-05-04T05:49:44.764Z,56.51
2023-05-04T05:54:48.789Z,56.56
2023-05-04T05:59:51.395Z,57.04
2023-05-04T06:04:54.384Z,55.92
2023-05-04T06:09:57.224Z,56.38
2023-05-04T06:15:00.041Z,56.41
2023-05-04T06:20:02.732Z,56.60
2023-05-04T06:25:08.105Z,56.19
2023-05-04T06:30:11.888Z,55.71
2023-05-04T06:35:14.943Z,54.96
2023-05-04T06:40:20.529Z,54.26
2023-05-04T06:45:23.133Z,53.99
2023-05-04T06:50:25.665Z,53.34
2023-05-04T06:55:28.223Z,54.70
2023-05-04T07:00:32.129Z,52.97
2023-05-04T07:05:37.233Z,53.20
2023-05-04T07:10:40.122Z,52.47
2023-05-04T07:15:42.699Z,50.62
2023-05-04T07:20:45.374Z,50.27
2023-05-04T07:25:47.993Z,49.97
2023-05-04T07:30:51.207Z,48.97
2023-05-04T07:35:58.720Z,48.45
2023-05-04T07:41:01.387Z,48.46
2023-05-04T07:46:04.014Z,46.24
2023-05-04T07:51:11.698Z,47.30
2023-05-04T07:56:14.338Z,46.05
2023-05-04T08:01:17.103Z,46.45
2023-05-04T08:06:19.689Z,45.79
2023-05-04T08:11:22.197Z,44.65
2023-05-04T08:16:24.756Z,43.39
2023-05-04T08:21:27.948Z,43.17
2023-05-04T08:26:31.084Z,42.71
2023-05-04T08:31:36.753Z,44.17
2023-05-04T08:36:40.579Z,42.80
2023-05-04T08:41:43.605Z,40.76
2023-05-04T08:46:53.638Z,40.86
2023-05-04T08:52:00.691Z,36.72
2023-05-04T08:57:05.070Z,38.31
2023-05-04T09:02:12.011Z,37.53
2023-05-04T09:07:16.440Z,37.49
2023-05-04T09:12:19.287Z,38.45
2023-05-04T09:17:29.395Z,37.22
2023-05-04T09:22:32.008Z,35.18
2023-05-04T09:27:34.578Z,35.20
2023-05-04T09:32:46.467Z,33.88
2023-05-04T09:38:26.793Z,32.34
2023-05-04T09:43:38.713Z,32.74
2023-05-04T09:48:53.846Z,31.67
2023-05-04T09:54:00.780Z,33.93
2023-05-04T09:59:05.443Z,33.36
2023-05-04T10:04:08.170Z,33.67
2023-05-04T10:09:11.654Z,33.93
2023-05-04T10:14:14.569Z,33.92
2023-05-04T10:19:49.036Z,33.77
2023-05-04T10:25:19.215Z,33.43
2023-05-04T10:30:22.962Z,32.85
2023-05-04T10:35:27.615Z,31.88
2023-05-04T10:40:38.190Z,31.43
2023-05-04T10:45:41.784Z,32.35
2023-05-04T10:50:46.657Z,30.29
2023-05-04T10:55:51.573Z,30.87
2023-05-04T11:00:54.162Z,31.15
2023-05-04T11:05:56.805Z,31.12
2023-05-04T11:11:06.782Z,32.56
2023-05-04T11:16:12.446Z,31.86
2023-05-04T11:21:25.767Z,31.76
2023-05-04T11:26:28.836Z,31.27
2023-05-04T11:31:31.554Z,32.66
2023-05-04T11:36:38.551Z,32.76
2023-05-04T11:41:42.941Z,30.09
2023-05-04T11:46:45.831Z,29.93
2023-05-04T11:51:48.578Z,28.76
2023-05-04T11:56:51.208Z,30.16
2023-05-04T12:01:53.990Z,30.08
2023-05-04T12:06:56.637Z,29.80
2023-05-04T12:11:59.316Z,31.03
2023-05-04T12:17:03.532Z,32.56
2023-05-04T12:22:06.086Z,32.55
2023-05-04T12:27:15.030Z,31.97
2023-05-04T12:32:18.337Z,31.64
2023-05-04T12:37:22.158Z,32.57
2023-05-04T12:42:26.486Z,32.09
2023-05-04T12:47:29.145Z,31.70
2023-05-04T12:52:31.687Z,32.92
2023-05-04T12:57:34.205Z,32.81
2023-05-04T13:02:37.780Z,31.96
2023-05-04T13:07:40.467Z,32.36
2023-05-04T13:12:45.443Z,33.54
2023-05-04T13:17:48.946Z,33.11
2023-05-04T13:22:52.247Z,33.40
2023-05-04T13:27:55.199Z,31.40
2023-05-04T13:32:57.818Z,31.93
2023-05-04T13:38:00.620Z,32.77
2023-05-04T13:43:04.464Z,31.48
2023-05-04T13:48:07.347Z,32.41
2023-05-04T13:53:12.923Z,31.99
2023-05-04T13:58:15.505Z,30.58
2023-05-04T14:03:20.498Z,31.28
2023-05-04T14:08:23.230Z,31.56
2023-05-04T14:13:25.868Z,31.24
2023-05-04T14:18:28.762Z,31.53
2023-05-04T14:23:31.414Z,31.30
2023-05-04T14:28:33.971Z,32.39
2023-05-04T14:33:37.233Z,32.08
2023-05-04T14:38:42.825Z,32.83
2023-05-04T14:43:45.729Z,32.86
2023-05-04T14:48:48.469Z,32.59
2023-05-04T14:53:51.404Z,33.55
2023-05-04T14:58:53.935Z,33.02
2023-05-04T15:03:56.767Z,33.06
2023-05-04T15:08:59.527Z,33.33
2023-05-04T15:14:02.235Z,32.37
2023-05-04T15:19:05.190Z,32.35
2023-05-04T15:24:09.257Z,32.31
2023-05-04T15:29:11.790Z,33.74
2023-05-04T15:34:16.825Z,31.80
2023-05-04T15:39:20.858Z,32.29
2023-05-04T15:44:24.209Z,32.12
2023-05-04T15:49:26.846Z,31.56
2023-05-04T15:54:30.085Z,32.26
2023-05-04T15:59:32.757Z,32.53
2023-05-04T16:04:35.887Z,32.65
2023-05-04T16:09:38.535Z,32.19
2023-05-04T16:14:41.492Z,31.84
2023-05-04T16:19:44.189Z,32.78
2023-05-04T16:24:46.766Z,32.78
2023-05-04T16:29:51.054Z,33.40
2023-05-04T16:34:53.564Z,33.46
2023-05-04T16:39:57.307Z,33.86
2023-05-04T16:45:02.096Z,34.70
2023-05-04T16:50:05.808Z,35.08
2023-05-04T16:55:11.815Z,35.46
2023-05-04T17:00:15.674Z,36.28
2023-05-04T17:05:19.459Z,38.58
2023-05-04T17:10:22.101Z,39.99
2023-05-04T17:15:24.675Z,41.42
2023-05-04T17:20:32.817Z,41.96
2023-05-04T17:25:35.629Z,43.45
2023-05-04T17:30:40.276Z,42.93
2023-05-04T17:35:42.820Z,43.23
2023-05-04T17:40:45.417Z,44.66
2023-05-04T17:45:48.012Z,44.53
2023-05-04T17:50:51.069Z,44.48
2023-05-04T17:55:53.617Z,45.61
2023-05-04T18:00:56.529Z,46.99
2023-05-04T18:05:59.050Z,46.96
2023-05-04T18:11:03.449Z,46.27
2023-05-04T18:16:06.362Z,46.88
2023-05-04T18:21:08.953Z,47.83
2023-05-04T18:26:18.200Z,48.46
2023-05-04T18:31:20.788Z,48.32
2023-05-04T18:36:24.422Z,49.61
2023-05-04T18:41:28.259Z,49.64
2023-05-04T18:46:30.816Z,49.64
2023-05-04T18:51:33.585Z,48.59
2023-05-04T18:56:36.518Z,50.26
2023-05-04T19:01:39.232Z,49.65
2023-05-04T19:06:42.104Z,50.93
2023-05-04T19:11:46.700Z,52.10
2023-05-04T19:16:49.219Z,52.18
2023-05-04T19:21:52.366Z,51.51
2023-05-04T19:26:55.882Z,52.84
2023-05-04T19:32:01.284Z,53.10
2023-05-04T19:37:08.585Z,53.94
2023-05-04T19:42:11.560Z,52.23
2023-05-04T19:47:14.061Z,53.37
2023-05-04T19:52:16.936Z,54.74
2023-05-04T19:57:20.974Z,55.78
2023-05-04T20:02:23.777Z,56.11
2023-05-04T20:07:26.474Z,57.11
2023-05-04T20:12:29.341Z,57.18
2023-05-04T20:17:33.392Z,56.11
2023-05-04T20:22:36.067Z,58.49
2023-05-04T20:27:39.459Z,58.45
2023-05-04T20:32:42.734Z,56.98
2023-05-04T20:37:45.463Z,57.75
2023-05-04T20:42:48.021Z,58.10
2023-05-04T20:47:50.695Z,57.78
2023-05-04T20:52:53.339Z,57.33
2023-05-04T20:57:56.332Z,58.62
2023-05-04T21:02:59.149Z,57.27
2023-05-04T21:08:01.756Z,58.75
2023-05-04T21:13:04.992Z,57.88
2023-05-04T21:18:07.637Z,57.77
2023-05-04T21:23:10.249Z,56.88
2023-05-04T21:28:12.786Z,56.36
2023-05-04T21:33:15.321Z,55.82
2023-05-04T21:38:19.563Z,55.16
2023-05-04T21:43:24.365Z,55.21
2023-05-04T21:48:26.970Z,55.65
2023-05-04T21:53:35.506Z,55.53
2023-05-04T21:58:40.699Z,56.02
2023-05-04T22:03:44.203Z,56.36
2023-05-04T22:08:46.757Z,56.95
2023-05-04T22:13:49.468Z,57.59
2023-05-04T22:18:52.160Z,57.60
2023-05-04T22:23:54.841Z,58.55
2023-05-04T22:28:57.397Z,57.80
2023-05-04T22:33:59.939Z,57.56
2023-05-04T22:39:02.621Z,58.07
2023-05-04T22:44:05.151Z,58.74
2023-05-04T22:49:07.770Z,59.05
2023-05-04T22:54:10.314Z,60.79
2023-05-04T22:59:13.002Z,60.76
2023-05-04T23:04:15.525Z,62.05
2023-05-04T23:09:18.320Z,65.65
2023-05-04T23:14:20.877Z,59.33
2023-05-04T23:19:23.409Z,56.36
2023-05-04T23:24:26.002Z,57.48
2023-05-04T23:29:28.523Z,59.00
2023-05-04T23:34:31.047Z,58.93
2023-05-04T23:39:33.553Z,60.66
2023-05-04T23:44:36.143Z,60.58
2023-05-04T23:49:38.616Z,60.25
2023-05-04T23:54:41.143Z,61.87
2023-05-04T23:59:43.644Z,68.08
